Terminal Aerodrome Forecast
Issued by NWS North Platte, NE

Home | Current Version | Previous Version | Text Only | Print | Product List | Glossary On
Versions: 1 2 3 4 5 6 7 8 9 10 11 12 13 14 15 16 17 18
000
FTUS43 KLBF 160500
TAFLBF
TAF
KLBF 160520Z 1606/1706 13005KT P6SM SKC
     FM161200 18010KT P6SM SCT025 BKN150
     FM161800 19008KT P6SM SCT150
     FM170000 15003KT P6SM SCT080=

USA.gov is the U.S. government's official web portal to all federal, state and local government web resources and services.